sensor_id;sensor_type;location;lat;lon;timestamp;P1;durP1;ratioP1;P2;durP2;ratioP2
73747;SDS011;62056;52.130;5.428;2022-11-24T00:01:07;10.25;;;1.85;;
73747;SDS011;62056;52.130;5.428;2022-11-24T00:03:35;7.72;;;1.52;;
73747;SDS011;62056;52.130;5.428;2022-11-24T00:06:06;11.40;;;1.90;;
73747;SDS011;62056;52.130;5.428;2022-11-24T00:08:36;12.32;;;2.60;;
73747;SDS011;62056;52.130;5.428;2022-11-24T00:11:09;9.40;;;2.47;;
73747;SDS011;62056;52.130;5.428;2022-11-24T00:13:38;11.65;;;2.05;;
73747;SDS011;62056;52.130;5.428;2022-11-24T00:18:43;16.57;;;4.87;;
73747;SDS011;62056;52.130;5.428;2022-11-24T00:21:11;13.93;;;5.10;;
73747;SDS011;62056;52.130;5.428;2022-11-24T00:23:39;13.18;;;5.20;;
73747;SDS011;62056;52.130;5.428;2022-11-24T00:28:37;18.88;;;5.80;;
73747;SDS011;62056;52.130;5.428;2022-11-24T00:31:12;20.07;;;5.63;;
73747;SDS011;62056;52.130;5.428;2022-11-24T00:33:49;14.73;;;5.32;;
73747;SDS011;62056;52.130;5.428;2022-11-24T00:36:17;9.77;;;3.30;;
73747;SDS011;62056;52.130;5.428;2022-11-24T00:38:45;9.00;;;2.85;;
73747;SDS011;62056;52.130;5.428;2022-11-24T00:41:12;8.52;;;2.90;;
73747;SDS011;62056;52.130;5.428;2022-11-24T00:43:39;12.37;;;2.70;;
73747;SDS011;62056;52.130;5.428;2022-11-24T00:46:06;9.80;;;2.17;;
73747;SDS011;62056;52.130;5.428;2022-11-24T00:48:32;14.05;;;3.72;;
73747;SDS011;62056;52.130;5.428;2022-11-24T00:51:00;14.50;;;4.38;;
73747;SDS011;62056;52.130;5.428;2022-11-24T00:53:30;14.50;;;5.15;;
73747;SDS011;62056;52.130;5.428;2022-11-24T00:55:57;13.00;;;4.10;;
73747;SDS011;62056;52.130;5.428;2022-11-24T00:58:24;15.27;;;4.75;;
73747;SDS011;62056;52.130;5.428;2022-11-24T01:00:51;16.75;;;4.85;;
73747;SDS011;62056;52.130;5.428;2022-11-24T01:03:18;13.77;;;4.97;;
73747;SDS011;62056;52.130;5.428;2022-11-24T01:05:46;22.50;;;6.00;;
73747;SDS011;62056;52.130;5.428;2022-11-24T01:08:13;27.30;;;7.73;;
73747;SDS011;62056;52.130;5.428;2022-11-24T01:10:40;17.98;;;5.68;;
73747;SDS011;62056;52.130;5.428;2022-11-24T01:13:06;32.13;;;15.70;;
73747;SDS011;62056;52.130;5.428;2022-11-24T01:15:34;23.02;;;9.00;;
73747;SDS011;62056;52.130;5.428;2022-11-24T01:18:02;28.10;;;8.38;;
73747;SDS011;62056;52.130;5.428;2022-11-24T01:20:29;19.57;;;8.80;;
73747;SDS011;62056;52.130;5.428;2022-11-24T01:22:56;20.13;;;8.25;;
73747;SDS011;62056;52.130;5.428;2022-11-24T01:25:22;17.45;;;8.40;;
73747;SDS011;62056;52.130;5.428;2022-11-24T01:27:49;34.88;;;12.82;;
73747;SDS011;62056;52.130;5.428;2022-11-24T01:30:16;27.73;;;5.53;;
73747;SDS011;62056;52.130;5.428;2022-11-24T01:32:42;13.57;;;4.40;;
73747;SDS011;62056;52.130;5.428;2022-11-24T01:35:09;17.08;;;3.40;;
73747;SDS011;62056;52.130;5.428;2022-11-24T01:37:36;13.98;;;4.20;;
73747;SDS011;62056;52.130;5.428;2022-11-24T01:40:02;15.52;;;3.10;;
73747;SDS011;62056;52.130;5.428;2022-11-24T01:42:41;18.88;;;3.33;;
73747;SDS011;62056;52.130;5.428;2022-11-24T01:45:25;16.90;;;2.37;;
73747;SDS011;62056;52.130;5.428;2022-11-24T01:47:53;12.52;;;2.97;;
73747;SDS011;62056;52.130;5.428;2022-11-24T01:50:21;13.85;;;2.10;;
73747;SDS011;62056;52.130;5.428;2022-11-24T01:52:49;13.20;;;3.17;;
73747;SDS011;62056;52.130;5.428;2022-11-24T01:55:20;16.73;;;2.70;;
73747;SDS011;62056;52.130;5.428;2022-11-24T01:57:52;13.57;;;2.57;;
73747;SDS011;62056;52.130;5.428;2022-11-24T02:00:24;7.30;;;2.05;;
73747;SDS011;62056;52.130;5.428;2022-11-24T02:02:51;7.88;;;1.27;;
73747;SDS011;62056;52.130;5.428;2022-11-24T02:05:28;8.65;;;1.85;;
73747;SDS011;62056;52.130;5.428;2022-11-24T02:08:03;8.43;;;2.03;;
73747;SDS011;62056;52.130;5.428;2022-11-24T02:10:36;16.30;;;3.00;;
73747;SDS011;62056;52.130;5.428;2022-11-24T02:13:14;11.18;;;3.05;;
73747;SDS011;62056;52.130;5.428;2022-11-24T02:15:41;14.38;;;3.72;;
73747;SDS011;62056;52.130;5.428;2022-11-24T02:18:08;14.93;;;5.45;;
73747;SDS011;62056;52.130;5.428;2022-11-24T02:20:34;14.30;;;4.13;;
73747;SDS011;62056;52.130;5.428;2022-11-24T02:28:23;13.38;;;4.35;;
73747;SDS011;62056;52.130;5.428;2022-11-24T02:30:54;24.13;;;5.75;;
73747;SDS011;62056;52.130;5.428;2022-11-24T02:33:21;22.05;;;6.47;;
73747;SDS011;62056;52.130;5.428;2022-11-24T02:35:50;26.17;;;13.93;;
73747;SDS011;62056;52.130;5.428;2022-11-24T02:38:17;23.48;;;11.10;;
73747;SDS011;62056;52.130;5.428;2022-11-24T02:40:45;21.38;;;7.43;;
73747;SDS011;62056;52.130;5.428;2022-11-24T02:43:15;21.50;;;7.35;;
73747;SDS011;62056;52.130;5.428;2022-11-24T02:45:45;16.77;;;6.55;;
73747;SDS011;62056;52.130;5.428;2022-11-24T02:48:13;41.63;;;19.30;;
73747;SDS011;62056;52.130;5.428;2022-11-24T02:50:41;29.13;;;9.23;;
73747;SDS011;62056;52.130;5.428;2022-11-24T02:53:07;16.25;;;9.02;;
73747;SDS011;62056;52.130;5.428;2022-11-24T02:55:34;20.00;;;6.60;;
73747;SDS011;62056;52.130;5.428;2022-11-24T02:58:00;21.55;;;5.07;;
73747;SDS011;62056;52.130;5.428;2022-11-24T03:00:27;11.53;;;4.37;;
73747;SDS011;62056;52.130;5.428;2022-11-24T03:02:53;11.43;;;2.65;;
73747;SDS011;62056;52.130;5.428;2022-11-24T03:05:20;8.20;;;2.60;;
73747;SDS011;62056;52.130;5.428;2022-11-24T03:07:47;13.75;;;2.30;;
73747;SDS011;62056;52.130;5.428;2022-11-24T03:10:14;5.65;;;2.22;;
73747;SDS011;62056;52.130;5.428;2022-11-24T03:12:41;11.50;;;2.60;;
73747;SDS011;62056;52.130;5.428;2022-11-24T03:15:08;9.55;;;2.83;;
73747;SDS011;62056;52.130;5.428;2022-11-24T03:17:35;9.07;;;2.53;;
73747;SDS011;62056;52.130;5.428;2022-11-24T03:20:02;18.95;;;8.30;;
73747;SDS011;62056;52.130;5.428;2022-11-24T03:22:30;13.38;;;5.55;;
73747;SDS011;62056;52.130;5.428;2022-11-24T03:24:57;11.80;;;4.53;;
73747;SDS011;62056;52.130;5.428;2022-11-24T03:27:24;11.95;;;4.00;;
73747;SDS011;62056;52.130;5.428;2022-11-24T03:29:51;10.60;;;5.70;;
73747;SDS011;62056;52.130;5.428;2022-11-24T03:32:17;14.88;;;5.28;;
73747;SDS011;62056;52.130;5.428;2022-11-24T03:34:44;14.85;;;4.00;;
73747;SDS011;62056;52.130;5.428;2022-11-24T03:37:11;8.27;;;3.37;;
73747;SDS011;62056;52.130;5.428;2022-11-24T03:39:37;16.58;;;9.95;;
73747;SDS011;62056;52.130;5.428;2022-11-24T03:42:04;10.30;;;4.32;;
73747;SDS011;62056;52.130;5.428;2022-11-24T03:44:31;12.13;;;2.53;;
73747;SDS011;62056;52.130;5.428;2022-11-24T03:46:58;9.98;;;3.00;;
73747;SDS011;62056;52.130;5.428;2022-11-24T03:49:25;13.50;;;3.37;;
73747;SDS011;62056;52.130;5.428;2022-11-24T03:51:51;7.97;;;1.80;;
73747;SDS011;62056;52.130;5.428;2022-11-24T03:54:18;12.77;;;2.17;;
73747;SDS011;62056;52.130;5.428;2022-11-24T03:56:44;10.35;;;1.83;;
73747;SDS011;62056;52.130;5.428;2022-11-24T03:59:11;9.70;;;1.92;;
73747;SDS011;62056;52.130;5.428;2022-11-24T04:01:38;13.83;;;1.60;;
73747;SDS011;62056;52.130;5.428;2022-11-24T04:04:04;7.32;;;2.42;;
73747;SDS011;62056;52.130;5.428;2022-11-24T04:06:31;9.82;;;1.80;;
73747;SDS011;62056;52.130;5.428;2022-11-24T04:08:58;11.43;;;1.90;;
73747;SDS011;62056;52.130;5.428;2022-11-24T04:11:25;12.43;;;3.00;;
73747;SDS011;62056;52.130;5.428;2022-11-24T04:14:10;12.90;;;3.50;;
73747;SDS011;62056;52.130;5.428;2022-11-24T04:16:39;10.73;;;3.60;;
73747;SDS011;62056;52.130;5.428;2022-11-24T04:19:05;8.90;;;2.63;;
73747;SDS011;62056;52.130;5.428;2022-11-24T04:21:32;12.65;;;3.97;;
73747;SDS011;62056;52.130;5.428;2022-11-24T04:23:59;10.07;;;2.70;;
73747;SDS011;62056;52.130;5.428;2022-11-24T04:26:25;10.40;;;2.37;;
73747;SDS011;62056;52.130;5.428;2022-11-24T04:28:52;8.77;;;2.10;;
73747;SDS011;62056;52.130;5.428;2022-11-24T04:31:19;10.00;;;2.67;;
73747;SDS011;62056;52.130;5.428;2022-11-24T04:33:46;11.77;;;2.67;;
73747;SDS011;62056;52.130;5.428;2022-11-24T04:36:12;6.50;;;2.20;;
73747;SDS011;62056;52.130;5.428;2022-11-24T04:38:39;13.70;;;2.33;;
73747;SDS011;62056;52.130;5.428;2022-11-24T04:41:25;5.25;;;2.58;;
73747;SDS011;62056;52.130;5.428;2022-11-24T04:43:52;6.32;;;2.65;;
73747;SDS011;62056;52.130;5.428;2022-11-24T04:46:18;20.27;;;2.42;;
73747;SDS011;62056;52.130;5.428;2022-11-24T04:48:45;8.48;;;2.03;;
73747;SDS011;62056;52.130;5.428;2022-11-24T04:51:12;10.30;;;2.13;;
73747;SDS011;62056;52.130;5.428;2022-11-24T04:53:39;13.80;;;2.28;;
73747;SDS011;62056;52.130;5.428;2022-11-24T04:56:06;6.97;;;1.77;;
73747;SDS011;62056;52.130;5.428;2022-11-24T04:58:33;8.43;;;1.80;;
73747;SDS011;62056;52.130;5.428;2022-11-24T05:01:00;7.78;;;1.30;;
73747;SDS011;62056;52.130;5.428;2022-11-24T05:03:27;11.17;;;2.63;;
73747;SDS011;62056;52.130;5.428;2022-11-24T05:05:53;3.22;;;1.35;;
73747;SDS011;62056;52.130;5.428;2022-11-24T05:08:24;8.75;;;3.08;;
73747;SDS011;62056;52.130;5.428;2022-11-24T05:10:50;8.15;;;2.90;;
73747;SDS011;62056;52.130;5.428;2022-11-24T05:13:17;8.48;;;3.35;;
73747;SDS011;62056;52.130;5.428;2022-11-24T05:15:43;4.93;;;1.40;;
73747;SDS011;62056;52.130;5.428;2022-11-24T05:18:11;3.78;;;1.73;;
73747;SDS011;62056;52.130;5.428;2022-11-24T05:20:40;6.78;;;1.23;;
73747;SDS011;62056;52.130;5.428;2022-11-24T05:23:09;5.05;;;1.42;;
73747;SDS011;62056;52.130;5.428;2022-11-24T05:25:36;4.32;;;0.60;;
73747;SDS011;62056;52.130;5.428;2022-11-24T05:28:03;3.23;;;0.70;;
73747;SDS011;62056;52.130;5.428;2022-11-24T05:30:31;2.63;;;1.13;;
73747;SDS011;62056;52.130;5.428;2022-11-24T05:32:58;3.10;;;0.57;;
73747;SDS011;62056;52.130;5.428;2022-11-24T05:35:24;5.00;;;1.58;;
73747;SDS011;62056;52.130;5.428;2022-11-24T05:37:51;7.25;;;1.00;;
73747;SDS011;62056;52.130;5.428;2022-11-24T05:40:17;5.23;;;1.17;;
73747;SDS011;62056;52.130;5.428;2022-11-24T05:42:44;5.63;;;0.93;;
73747;SDS011;62056;52.130;5.428;2022-11-24T05:45:15;1.45;;;0.52;;
73747;SDS011;62056;52.130;5.428;2022-11-24T05:47:44;7.75;;;1.15;;
73747;SDS011;62056;52.130;5.428;2022-11-24T05:50:12;3.53;;;0.52;;
73747;SDS011;62056;52.130;5.428;2022-11-24T05:52:41;6.57;;;0.93;;
73747;SDS011;62056;52.130;5.428;2022-11-24T05:55:09;2.78;;;0.70;;
73747;SDS011;62056;52.130;5.428;2022-11-24T05:57:37;2.55;;;0.47;;
73747;SDS011;62056;52.130;5.428;2022-11-24T06:00:04;4.00;;;0.50;;
73747;SDS011;62056;52.130;5.428;2022-11-24T06:02:32;4.15;;;0.50;;
73747;SDS011;62056;52.130;5.428;2022-11-24T06:04:59;3.20;;;0.60;;
73747;SDS011;62056;52.130;5.428;2022-11-24T06:07:25;1.30;;;0.32;;
73747;SDS011;62056;52.130;5.428;2022-11-24T06:09:52;0.82;;;0.40;;
73747;SDS011;62056;52.130;5.428;2022-11-24T06:12:18;1.90;;;0.60;;
73747;SDS011;62056;52.130;5.428;2022-11-24T06:14:45;3.85;;;1.05;;
73747;SDS011;62056;52.130;5.428;2022-11-24T06:17:12;3.83;;;0.63;;
73747;SDS011;62056;52.130;5.428;2022-11-24T06:19:38;4.07;;;0.80;;
73747;SDS011;62056;52.130;5.428;2022-11-24T06:22:07;2.55;;;0.60;;
73747;SDS011;62056;52.130;5.428;2022-11-24T06:24:34;1.50;;;0.60;;
73747;SDS011;62056;52.130;5.428;2022-11-24T06:27:01;3.53;;;0.60;;
73747;SDS011;62056;52.130;5.428;2022-11-24T06:29:27;4.07;;;0.80;;
73747;SDS011;62056;52.130;5.428;2022-11-24T06:31:54;1.77;;;0.80;;
73747;SDS011;62056;52.130;5.428;2022-11-24T06:34:20;2.95;;;0.80;;
73747;SDS011;62056;52.130;5.428;2022-11-24T06:36:47;2.92;;;0.52;;
73747;SDS011;62056;52.130;5.428;2022-11-24T06:39:13;3.75;;;1.25;;
73747;SDS011;62056;52.130;5.428;2022-11-24T06:41:40;4.93;;;1.13;;
73747;SDS011;62056;52.130;5.428;2022-11-24T06:44:06;3.15;;;0.80;;
73747;SDS011;62056;52.130;5.428;2022-11-24T06:46:33;1.65;;;0.60;;
73747;SDS011;62056;52.130;5.428;2022-11-24T06:48:59;3.20;;;0.98;;
73747;SDS011;62056;52.130;5.428;2022-11-24T06:51:27;3.47;;;0.73;;
73747;SDS011;62056;52.130;5.428;2022-11-24T06:53:54;4.93;;;0.97;;
73747;SDS011;62056;52.130;5.428;2022-11-24T06:56:21;3.67;;;0.93;;
73747;SDS011;62056;52.130;5.428;2022-11-24T06:58:48;4.65;;;1.10;;
73747;SDS011;62056;52.130;5.428;2022-11-24T07:01:17;2.53;;;1.83;;
73747;SDS011;62056;52.130;5.428;2022-11-24T07:03:47;2.90;;;2.55;;
73747;SDS011;62056;52.130;5.428;2022-11-24T07:06:14;3.40;;;3.03;;
73747;SDS011;62056;52.130;5.428;2022-11-24T07:08:41;6.65;;;4.82;;
73747;SDS011;62056;52.130;5.428;2022-11-24T07:11:15;4.93;;;3.95;;
73747;SDS011;62056;52.130;5.428;2022-11-24T07:13:44;4.60;;;3.08;;
73747;SDS011;62056;52.130;5.428;2022-11-24T07:16:15;4.32;;;2.22;;
73747;SDS011;62056;52.130;5.428;2022-11-24T07:18:44;3.90;;;2.90;;
73747;SDS011;62056;52.130;5.428;2022-11-24T07:21:12;5.57;;;3.63;;
73747;SDS011;62056;52.130;5.428;2022-11-24T07:23:39;3.90;;;2.75;;
73747;SDS011;62056;52.130;5.428;2022-11-24T07:26:06;4.55;;;2.45;;
73747;SDS011;62056;52.130;5.428;2022-11-24T07:28:34;3.55;;;2.67;;
73747;SDS011;62056;52.130;5.428;2022-11-24T07:31:05;3.53;;;3.03;;
73747;SDS011;62056;52.130;5.428;2022-11-24T07:33:37;3.83;;;3.40;;
73747;SDS011;62056;52.130;5.428;2022-11-24T07:36:05;6.65;;;4.63;;
73747;SDS011;62056;52.130;5.428;2022-11-24T07:38:33;3.53;;;3.00;;
73747;SDS011;62056;52.130;5.428;2022-11-24T07:41:01;8.18;;;4.75;;
73747;SDS011;62056;52.130;5.428;2022-11-24T07:43:32;4.90;;;3.77;;
73747;SDS011;62056;52.130;5.428;2022-11-24T07:46:00;8.90;;;4.35;;
73747;SDS011;62056;52.130;5.428;2022-11-24T07:48:27;9.98;;;4.40;;
73747;SDS011;62056;52.130;5.428;2022-11-24T07:50:54;6.53;;;2.90;;
73747;SDS011;62056;52.130;5.428;2022-11-24T07:53:24;6.00;;;3.15;;
73747;SDS011;62056;52.130;5.428;2022-11-24T07:55:52;6.83;;;3.80;;
73747;SDS011;62056;52.130;5.428;2022-11-24T07:58:21;9.85;;;3.42;;
73747;SDS011;62056;52.130;5.428;2022-11-24T08:00:48;7.05;;;3.38;;
73747;SDS011;62056;52.130;5.428;2022-11-24T08:03:15;7.90;;;3.58;;
73747;SDS011;62056;52.130;5.428;2022-11-24T08:05:41;5.68;;;2.95;;
73747;SDS011;62056;52.130;5.428;2022-11-24T08:08:29;3.67;;;2.70;;
73747;SDS011;62056;52.130;5.428;2022-11-24T08:11:02;4.95;;;3.20;;
73747;SDS011;62056;52.130;5.428;2022-11-24T08:13:33;4.05;;;2.88;;
73747;SDS011;62056;52.130;5.428;2022-11-24T08:16:11;4.80;;;2.95;;
73747;SDS011;62056;52.130;5.428;2022-11-24T08:18:40;5.38;;;3.05;;
73747;SDS011;62056;52.130;5.428;2022-11-24T08:21:10;3.40;;;2.10;;
73747;SDS011;62056;52.130;5.428;2022-11-24T08:23:38;4.85;;;2.80;;
73747;SDS011;62056;52.130;5.428;2022-11-24T08:26:05;4.20;;;2.83;;
73747;SDS011;62056;52.130;5.428;2022-11-24T08:28:34;4.32;;;2.15;;
73747;SDS011;62056;52.130;5.428;2022-11-24T08:31:03;3.53;;;2.00;;
73747;SDS011;62056;52.130;5.428;2022-11-24T08:33:31;8.00;;;3.10;;
73747;SDS011;62056;52.130;5.428;2022-11-24T08:36:02;4.57;;;2.63;;
73747;SDS011;62056;52.130;5.428;2022-11-24T08:38:30;3.95;;;2.60;;
73747;SDS011;62056;52.130;5.428;2022-11-24T08:41:03;4.20;;;2.80;;
73747;SDS011;62056;52.130;5.428;2022-11-24T08:43:32;4.50;;;2.38;;
73747;SDS011;62056;52.130;5.428;2022-11-24T08:46:00;6.77;;;2.87;;
73747;SDS011;62056;52.130;5.428;2022-11-24T08:48:29;6.93;;;2.88;;
73747;SDS011;62056;52.130;5.428;2022-11-24T08:50:56;6.00;;;3.25;;
73747;SDS011;62056;52.130;5.428;2022-11-24T08:53:33;9.05;;;2.95;;
73747;SDS011;62056;52.130;5.428;2022-11-24T08:55:59;6.30;;;2.95;;
73747;SDS011;62056;52.130;5.428;2022-11-24T08:58:29;7.87;;;2.70;;
73747;SDS011;62056;52.130;5.428;2022-11-24T09:01:04;5.07;;;2.53;;
73747;SDS011;62056;52.130;5.428;2022-11-24T09:03:39;3.47;;;1.80;;
73747;SDS011;62056;52.130;5.428;2022-11-24T09:06:18;2.92;;;1.90;;
73747;SDS011;62056;52.130;5.428;2022-11-24T09:08:50;4.10;;;1.75;;
73747;SDS011;62056;52.130;5.428;2022-11-24T09:11:18;8.27;;;2.80;;
73747;SDS011;62056;52.130;5.428;2022-11-24T09:13:45;5.50;;;2.13;;
73747;SDS011;62056;52.130;5.428;2022-11-24T09:18:40;4.40;;;2.15;;
73747;SDS011;62056;52.130;5.428;2022-11-24T09:21:08;2.78;;;1.40;;
73747;SDS011;62056;52.130;5.428;2022-11-24T09:23:43;5.60;;;1.57;;
73747;SDS011;62056;52.130;5.428;2022-11-24T09:26:13;8.30;;;2.40;;
73747;SDS011;62056;52.130;5.428;2022-11-24T09:28:43;3.70;;;1.65;;
73747;SDS011;62056;52.130;5.428;2022-11-24T09:31:11;4.35;;;1.27;;
73747;SDS011;62056;52.130;5.428;2022-11-24T09:33:39;5.55;;;1.42;;
73747;SDS011;62056;52.130;5.428;2022-11-24T09:36:06;3.90;;;1.07;;
73747;SDS011;62056;52.130;5.428;2022-11-24T09:38:34;5.20;;;0.93;;
73747;SDS011;62056;52.130;5.428;2022-11-24T09:41:20;5.43;;;1.70;;
73747;SDS011;62056;52.130;5.428;2022-11-24T09:46:55;4.35;;;0.93;;
73747;SDS011;62056;52.130;5.428;2022-11-24T09:49:31;6.40;;;1.50;;
73747;SDS011;62056;52.130;5.428;2022-11-24T09:52:02;5.22;;;2.78;;
73747;SDS011;62056;52.130;5.428;2022-11-24T09:54:35;10.43;;;3.97;;
73747;SDS011;62056;52.130;5.428;2022-11-24T09:57:16;5.72;;;1.30;;
73747;SDS011;62056;52.130;5.428;2022-11-24T09:59:46;3.42;;;1.52;;
73747;SDS011;62056;52.130;5.428;2022-11-24T10:02:13;11.40;;;8.50;;
73747;SDS011;62056;52.130;5.428;2022-11-24T10:04:44;4.97;;;2.97;;
73747;SDS011;62056;52.130;5.428;2022-11-24T10:07:21;7.93;;;3.03;;
73747;SDS011;62056;52.130;5.428;2022-11-24T10:10:17;6.13;;;5.13;;
73747;SDS011;62056;52.130;5.428;2022-11-24T10:13:14;9.85;;;4.10;;
73747;SDS011;62056;52.130;5.428;2022-11-24T10:16:01;7.87;;;1.83;;
73747;SDS011;62056;52.130;5.428;2022-11-24T10:18:39;8.05;;;5.35;;
73747;SDS011;62056;52.130;5.428;2022-11-24T10:26:17;8.48;;;3.95;;
73747;SDS011;62056;52.130;5.428;2022-11-24T10:28:52;6.30;;;2.03;;
73747;SDS011;62056;52.130;5.428;2022-11-24T10:33:49;10.00;;;2.90;;
73747;SDS011;62056;52.130;5.428;2022-11-24T10:36:25;6.43;;;1.90;;
73747;SDS011;62056;52.130;5.428;2022-11-24T10:39:09;6.72;;;1.63;;
73747;SDS011;62056;52.130;5.428;2022-11-24T10:41:51;6.20;;;1.47;;
73747;SDS011;62056;52.130;5.428;2022-11-24T10:44:28;8.32;;;1.55;;
73747;SDS011;62056;52.130;5.428;2022-11-24T10:46:55;7.93;;;1.60;;
73747;SDS011;62056;52.130;5.428;2022-11-24T10:49:26;5.65;;;1.33;;
73747;SDS011;62056;52.130;5.428;2022-11-24T10:52:11;4.30;;;0.88;;
73747;SDS011;62056;52.130;5.428;2022-11-24T10:55:00;4.80;;;1.10;;
73747;SDS011;62056;52.130;5.428;2022-11-24T10:57:30;5.28;;;1.48;;
73747;SDS011;62056;52.130;5.428;2022-11-24T10:59:59;6.57;;;1.30;;
73747;SDS011;62056;52.130;5.428;2022-11-24T11:10:41;8.30;;;1.40;;
73747;SDS011;62056;52.130;5.428;2022-11-24T11:15:57;7.97;;;1.13;;
73747;SDS011;62056;52.130;5.428;2022-11-24T11:18:27;6.57;;;1.27;;
73747;SDS011;62056;52.130;5.428;2022-11-24T11:20:58;10.33;;;1.77;;
73747;SDS011;62056;52.130;5.428;2022-11-24T11:23:30;9.15;;;1.70;;
73747;SDS011;62056;52.130;5.428;2022-11-24T11:26:15;9.05;;;1.23;;
73747;SDS011;62056;52.130;5.428;2022-11-24T11:28:58;7.70;;;1.45;;
73747;SDS011;62056;52.130;5.428;2022-11-24T11:32:01;12.55;;;0.93;;
73747;SDS011;62056;52.130;5.428;2022-11-24T11:35:01;18.27;;;2.10;;
73747;SDS011;62056;52.130;5.428;2022-11-24T11:37:29;7.95;;;1.30;;
73747;SDS011;62056;52.130;5.428;2022-11-24T11:39:58;11.02;;;1.42;;
73747;SDS011;62056;52.130;5.428;2022-11-24T11:45:27;6.70;;;1.70;;
73747;SDS011;62056;52.130;5.428;2022-11-24T11:50:37;9.75;;;1.35;;
73747;SDS011;62056;52.130;5.428;2022-11-24T11:53:34;14.20;;;2.10;;
73747;SDS011;62056;52.130;5.428;2022-11-24T11:56:19;13.48;;;2.38;;
73747;SDS011;62056;52.130;5.428;2022-11-24T12:01:57;8.17;;;1.40;;
73747;SDS011;62056;52.130;5.428;2022-11-24T12:04:53;5.97;;;1.48;;
73747;SDS011;62056;52.130;5.428;2022-11-24T12:15:58;14.67;;;1.67;;
73747;SDS011;62056;52.130;5.428;2022-11-24T12:24:22;12.10;;;1.75;;
73747;SDS011;62056;52.130;5.428;2022-11-24T12:26:57;4.68;;;0.85;;
73747;SDS011;62056;52.130;5.428;2022-11-24T12:29:54;11.73;;;2.10;;
73747;SDS011;62056;52.130;5.428;2022-11-24T12:37:59;10.65;;;1.60;;
73747;SDS011;62056;52.130;5.428;2022-11-24T12:43:47;9.37;;;1.40;;
73747;SDS011;62056;52.130;5.428;2022-11-24T12:51:39;6.47;;;1.65;;
73747;SDS011;62056;52.130;5.428;2022-11-24T12:54:10;12.50;;;1.38;;
73747;SDS011;62056;52.130;5.428;2022-11-24T12:56:41;8.17;;;1.73;;
73747;SDS011;62056;52.130;5.428;2022-11-24T13:01:49;8.57;;;1.35;;
73747;SDS011;62056;52.130;5.428;2022-11-24T13:04:32;7.85;;;1.88;;
73747;SDS011;62056;52.130;5.428;2022-11-24T13:07:13;9.20;;;2.05;;
73747;SDS011;62056;52.130;5.428;2022-11-24T13:13:10;9.65;;;1.25;;
73747;SDS011;62056;52.130;5.428;2022-11-24T13:19:00;7.72;;;1.48;;
73747;SDS011;62056;52.130;5.428;2022-11-24T13:26:49;10.65;;;1.95;;
73747;SDS011;62056;52.130;5.428;2022-11-24T13:31:54;7.00;;;1.88;;
73747;SDS011;62056;52.130;5.428;2022-11-24T13:53:27;6.45;;;2.20;;
73747;SDS011;62056;52.130;5.428;2022-11-24T13:58:39;6.50;;;1.70;;
73747;SDS011;62056;52.130;5.428;2022-11-24T14:03:55;8.87;;;1.60;;
73747;SDS011;62056;52.130;5.428;2022-11-24T14:06:47;5.10;;;0.88;;
73747;SDS011;62056;52.130;5.428;2022-11-24T14:09:22;6.68;;;1.13;;
73747;SDS011;62056;52.130;5.428;2022-11-24T14:12:00;10.07;;;1.45;;
73747;SDS011;62056;52.130;5.428;2022-11-24T14:14:31;18.83;;;1.92;;
73747;SDS011;62056;52.130;5.428;2022-11-24T14:17:05;7.57;;;1.77;;
73747;SDS011;62056;52.130;5.428;2022-11-24T14:19:32;13.85;;;2.28;;
73747;SDS011;62056;52.130;5.428;2022-11-24T14:21:59;9.57;;;1.75;;
73747;SDS011;62056;52.130;5.428;2022-11-24T14:24:28;12.15;;;1.75;;
73747;SDS011;62056;52.130;5.428;2022-11-24T14:27:10;11.38;;;2.10;;
73747;SDS011;62056;52.130;5.428;2022-11-24T14:29:50;7.57;;;1.70;;
73747;SDS011;62056;52.130;5.428;2022-11-24T14:32:20;9.88;;;1.88;;
73747;SDS011;62056;52.130;5.428;2022-11-24T14:34:47;9.35;;;1.55;;
73747;SDS011;62056;52.130;5.428;2022-11-24T14:37:17;9.15;;;2.15;;
73747;SDS011;62056;52.130;5.428;2022-11-24T14:39:45;13.68;;;2.17;;
73747;SDS011;62056;52.130;5.428;2022-11-24T14:42:19;17.23;;;1.93;;
73747;SDS011;62056;52.130;5.428;2022-11-24T14:47:27;7.95;;;1.23;;
73747;SDS011;62056;52.130;5.428;2022-11-24T14:50:11;6.53;;;1.65;;
73747;SDS011;62056;52.130;5.428;2022-11-24T14:52:42;6.65;;;1.25;;
73747;SDS011;62056;52.130;5.428;2022-11-24T14:55:22;10.80;;;1.70;;
73747;SDS011;62056;52.130;5.428;2022-11-24T14:57:51;10.75;;;2.55;;
73747;SDS011;62056;52.130;5.428;2022-11-24T15:00:19;9.20;;;2.40;;
73747;SDS011;62056;52.130;5.428;2022-11-24T15:02:55;5.80;;;1.55;;
73747;SDS011;62056;52.130;5.428;2022-11-24T15:05:49;7.43;;;1.40;;
73747;SDS011;62056;52.130;5.428;2022-11-24T15:08:16;12.23;;;1.60;;
73747;SDS011;62056;52.130;5.428;2022-11-24T15:10:43;12.45;;;1.75;;
73747;SDS011;62056;52.130;5.428;2022-11-24T15:13:20;11.73;;;1.42;;
73747;SDS011;62056;52.130;5.428;2022-11-24T15:15:50;10.48;;;1.48;;
73747;SDS011;62056;52.130;5.428;2022-11-24T15:18:32;10.70;;;2.00;;
73747;SDS011;62056;52.130;5.428;2022-11-24T15:21:04;6.57;;;2.30;;
73747;SDS011;62056;52.130;5.428;2022-11-24T15:23:33;19.58;;;2.95;;
73747;SDS011;62056;52.130;5.428;2022-11-24T15:28:27;14.38;;;1.92;;
73747;SDS011;62056;52.130;5.428;2022-11-24T15:31:00;12.77;;;2.10;;
73747;SDS011;62056;52.130;5.428;2022-11-24T15:33:29;6.70;;;1.67;;
73747;SDS011;62056;52.130;5.428;2022-11-24T15:35:56;7.28;;;2.00;;
73747;SDS011;62056;52.130;5.428;2022-11-24T15:38:23;18.50;;;6.20;;
73747;SDS011;62056;52.130;5.428;2022-11-24T15:40:50;8.38;;;2.50;;
73747;SDS011;62056;52.130;5.428;2022-11-24T15:45:58;10.40;;;2.40;;
73747;SDS011;62056;52.130;5.428;2022-11-24T15:48:27;10.40;;;2.78;;
73747;SDS011;62056;52.130;5.428;2022-11-24T15:50:54;15.23;;;2.67;;
73747;SDS011;62056;52.130;5.428;2022-11-24T15:56:11;10.02;;;2.00;;
73747;SDS011;62056;52.130;5.428;2022-11-24T15:58:43;18.10;;;3.10;;
73747;SDS011;62056;52.130;5.428;2022-11-24T16:01:10;9.85;;;1.90;;
73747;SDS011;62056;52.130;5.428;2022-11-24T16:03:36;7.57;;;2.47;;
73747;SDS011;62056;52.130;5.428;2022-11-24T16:06:13;15.32;;;3.03;;
73747;SDS011;62056;52.130;5.428;2022-11-24T16:08:49;8.32;;;1.50;;
73747;SDS011;62056;52.130;5.428;2022-11-24T16:11:16;12.23;;;1.70;;
73747;SDS011;62056;52.130;5.428;2022-11-24T16:13:42;14.60;;;1.90;;
73747;SDS011;62056;52.130;5.428;2022-11-24T16:16:17;8.25;;;1.23;;
73747;SDS011;62056;52.130;5.428;2022-11-24T16:18:44;8.52;;;1.50;;
73747;SDS011;62056;52.130;5.428;2022-11-24T16:21:11;9.50;;;1.75;;
73747;SDS011;62056;52.130;5.428;2022-11-24T16:23:38;11.57;;;2.13;;
73747;SDS011;62056;52.130;5.428;2022-11-24T16:26:05;16.10;;;2.00;;
73747;SDS011;62056;52.130;5.428;2022-11-24T16:28:32;13.77;;;1.67;;
73747;SDS011;62056;52.130;5.428;2022-11-24T16:30:59;10.43;;;2.70;;
73747;SDS011;62056;52.130;5.428;2022-11-24T16:33:27;7.10;;;1.52;;
73747;SDS011;62056;52.130;5.428;2022-11-24T16:35:55;9.53;;;1.47;;
73747;SDS011;62056;52.130;5.428;2022-11-24T16:38:21;13.70;;;1.38;;
73747;SDS011;62056;52.130;5.428;2022-11-24T16:40:54;10.60;;;1.92;;
73747;SDS011;62056;52.130;5.428;2022-11-24T16:43:23;12.98;;;1.92;;
73747;SDS011;62056;52.130;5.428;2022-11-24T16:45:59;12.40;;;1.85;;
73747;SDS011;62056;52.130;5.428;2022-11-24T16:48:32;14.03;;;2.10;;
73747;SDS011;62056;52.130;5.428;2022-11-24T16:51:04;7.07;;;1.25;;
73747;SDS011;62056;52.130;5.428;2022-11-24T16:53:32;12.65;;;2.15;;
73747;SDS011;62056;52.130;5.428;2022-11-24T16:55:59;18.50;;;3.35;;
73747;SDS011;62056;52.130;5.428;2022-11-24T16:58:25;10.07;;;2.10;;
73747;SDS011;62056;52.130;5.428;2022-11-24T17:00:52;10.10;;;2.30;;
73747;SDS011;62056;52.130;5.428;2022-11-24T17:03:19;14.15;;;2.40;;
73747;SDS011;62056;52.130;5.428;2022-11-24T17:08:35;12.48;;;1.92;;